createdAt,value
2023-02-05T00:01:16.700Z,1.40
2023-02-05T00:03:45.320Z,1.50
2023-02-05T00:06:14.005Z,1.10
2023-02-05T00:08:42.530Z,1.30
2023-02-05T00:11:11.029Z,1.40
2023-02-05T00:13:42.296Z,1.30
2023-02-05T00:16:13.725Z,1.40
2023-02-05T00:18:42.573Z,1.30
2023-02-05T00:21:12.532Z,1.40
2023-02-05T00:23:41.471Z,1.40
2023-02-05T00:26:14.572Z,1.40
2023-02-05T00:28:43.691Z,1.60
2023-02-05T00:31:18.426Z,1.50
2023-02-05T00:33:48.246Z,1.60
2023-02-05T00:36:18.544Z,1.90
2023-02-05T00:38:48.015Z,1.60
2023-02-05T00:41:17.673Z,1.30
2023-02-05T00:43:46.936Z,1.10
2023-02-05T00:46:15.924Z,1.40
2023-02-05T00:48:45.076Z,1.20
2023-02-05T00:51:13.626Z,1.30
2023-02-05T00:53:42.072Z,1.10
2023-02-05T00:56:10.763Z,1.40
2023-02-05T00:58:39.482Z,1.30
2023-02-05T01:01:08.185Z,1.00
2023-02-05T01:03:36.834Z,1.10
2023-02-05T01:06:06.879Z,1.20
2023-02-05T01:08:35.738Z,1.40
2023-02-05T01:11:09.061Z,1.40
2023-02-05T01:13:38.737Z,1.40
2023-02-05T01:16:08.431Z,1.70
2023-02-05T01:18:37.058Z,1.50
2023-02-05T01:21:06.298Z,1.70
2023-02-05T01:23:34.948Z,1.60
2023-02-05T01:26:03.407Z,1.90
2023-02-05T01:28:31.970Z,1.60
2023-02-05T01:31:00.556Z,1.20
2023-02-05T01:33:29.178Z,1.30
2023-02-05T01:35:57.591Z,1.80
2023-02-05T01:38:26.207Z,1.30
2023-02-05T01:40:54.638Z,1.50
2023-02-05T01:43:23.098Z,1.10
2023-02-05T01:46:06.043Z,1.50
2023-02-05T01:48:40.952Z,1.70
2023-02-05T01:51:12.321Z,1.40
2023-02-05T01:53:43.140Z,1.10
2023-02-05T01:56:31.185Z,1.10
2023-02-05T01:59:15.408Z,1.50
2023-02-05T02:01:44.729Z,1.30
2023-02-05T02:04:21.191Z,1.10
2023-02-05T02:06:49.734Z,1.20
2023-02-05T02:09:18.265Z,1.40
2023-02-05T02:11:47.008Z,1.40
2023-02-05T02:14:16.453Z,1.30
2023-02-05T02:16:45.200Z,1.70
2023-02-05T02:19:26.683Z,1.80
2023-02-05T02:22:25.431Z,1.70
2023-02-05T02:25:15.580Z,1.50
2023-02-05T02:27:55.009Z,1.70
2023-02-05T02:30:52.554Z,1.30
2023-02-05T02:33:29.158Z,1.50
2023-02-05T02:36:15.686Z,1.50
2023-02-05T02:39:08.451Z,2.40
2023-02-05T02:41:44.539Z,2.70
2023-02-05T02:44:19.709Z,2.40
2023-02-05T02:46:59.374Z,2.20
2023-02-05T02:49:34.533Z,1.50
2023-02-05T02:52:07.022Z,1.50
2023-02-05T02:54:37.452Z,1.40
2023-02-05T02:57:08.869Z,1.70
2023-02-05T02:59:41.011Z,1.40
2023-02-05T03:02:13.205Z,1.20
2023-02-05T03:04:46.833Z,1.40
2023-02-05T03:07:22.574Z,1.50
2023-02-05T03:09:57.003Z,1.40
2023-02-05T03:12:25.500Z,1.50
2023-02-05T03:14:54.499Z,1.30
2023-02-05T03:17:24.944Z,1.50
2023-02-05T03:20:03.246Z,1.20
2023-02-05T03:22:31.906Z,1.60
2023-02-05T03:25:02.767Z,1.50
2023-02-05T03:27:33.074Z,1.50
2023-02-05T03:30:02.702Z,1.40
2023-02-05T03:32:58.827Z,1.30
2023-02-05T03:35:43.621Z,1.50
2023-02-05T03:38:40.173Z,1.60
2023-02-05T03:41:21.085Z,1.50
2023-02-05T03:44:06.672Z,1.60
2023-02-05T03:47:09.893Z,1.60
2023-02-05T03:49:53.144Z,1.70
2023-02-05T03:52:32.878Z,1.30
2023-02-05T03:55:20.233Z,1.60
2023-02-05T03:58:09.138Z,1.50
2023-02-05T04:00:38.386Z,1.60
2023-02-05T04:03:07.444Z,1.20
2023-02-05T04:05:36.809Z,1.60
2023-02-05T04:08:06.038Z,1.50
2023-02-05T04:10:39.008Z,1.70
2023-02-05T04:13:07.630Z,1.80
2023-02-05T04:15:36.724Z,2.20
2023-02-05T04:18:08.567Z,2.20
2023-02-05T04:20:37.082Z,1.60
2023-02-05T04:23:05.892Z,1.90
2023-02-05T04:25:37.542Z,2.50
2023-02-05T04:28:08.447Z,2.70
2023-02-05T04:30:37.512Z,1.90
2023-02-05T04:33:06.217Z,2.40
2023-02-05T04:35:35.635Z,3.00
2023-02-05T04:38:04.615Z,2.40
2023-02-05T04:40:33.380Z,3.00
2023-02-05T04:43:01.875Z,3.30
2023-02-05T04:45:31.615Z,3.40
2023-02-05T04:48:01.008Z,2.40
2023-02-05T04:50:29.446Z,1.50
2023-02-05T04:52:58.024Z,1.40
2023-02-05T04:55:26.586Z,1.40
2023-02-05T04:57:55.156Z,1.70
2023-02-05T05:00:24.424Z,1.40
2023-02-05T05:02:53.492Z,1.70
2023-02-05T05:05:22.186Z,1.50
2023-02-05T05:07:50.679Z,1.60
2023-02-05T05:10:19.332Z,1.50
2023-02-05T05:12:47.785Z,1.70
2023-02-05T05:15:17.013Z,1.80
2023-02-05T05:17:45.445Z,1.50
2023-02-05T05:20:13.923Z,1.10
2023-02-05T05:22:42.373Z,1.50
2023-02-05T05:25:11.010Z,1.80
2023-02-05T05:27:39.458Z,1.40
2023-02-05T05:30:08.934Z,1.20
2023-02-05T05:32:37.446Z,1.40
2023-02-05T05:35:06.731Z,1.10
2023-02-05T05:37:35.111Z,1.30
2023-02-05T05:40:22.235Z,1.80
2023-02-05T05:43:09.197Z,2.30
2023-02-05T05:45:37.624Z,1.90
2023-02-05T05:48:06.191Z,2.40
2023-02-05T05:50:34.730Z,1.80
2023-02-05T05:53:03.607Z,2.10
2023-02-05T05:55:32.251Z,1.70
2023-02-05T05:58:01.102Z,1.30
2023-02-05T06:00:29.691Z,1.70
2023-02-05T06:02:58.212Z,1.60
2023-02-05T06:05:27.363Z,2.00
2023-02-05T06:07:55.782Z,2.40
2023-02-05T06:10:24.871Z,2.30
2023-02-05T06:12:53.324Z,1.90
2023-02-05T06:15:22.449Z,2.20
2023-02-05T06:17:50.823Z,1.80
2023-02-05T06:20:19.476Z,1.80
2023-02-05T06:22:48.066Z,1.90
2023-02-05T06:25:16.605Z,1.90
2023-02-05T06:27:45.172Z,2.00
2023-02-05T06:30:13.915Z,2.00
2023-02-05T06:32:42.343Z,1.70
2023-02-05T06:35:10.938Z,1.70
2023-02-05T06:37:47.030Z,1.70
2023-02-05T06:40:18.455Z,1.50
2023-02-05T06:42:47.125Z,1.50
2023-02-05T06:45:15.697Z,1.60
2023-02-05T06:47:44.298Z,2.00
2023-02-05T06:50:13.194Z,2.40
2023-02-05T06:52:41.641Z,2.50
2023-02-05T06:55:10.344Z,2.60
2023-02-05T06:57:38.787Z,2.20
2023-02-05T07:00:08.536Z,2.20
2023-02-05T07:02:37.213Z,2.70
2023-02-05T07:05:06.416Z,5.70
2023-02-05T07:07:35.279Z,4.50
2023-02-05T07:10:04.653Z,3.40
2023-02-05T07:12:33.214Z,5.00
2023-02-05T07:15:01.712Z,5.10
2023-02-05T07:17:30.163Z,4.60
2023-02-05T07:19:59.093Z,4.00
2023-02-05T07:22:27.736Z,3.30
2023-02-05T07:24:56.249Z,3.70
2023-02-05T07:27:24.842Z,2.40
2023-02-05T07:29:53.547Z,2.40
2023-02-05T07:32:22.049Z,2.00
2023-02-05T07:34:50.600Z,2.10
2023-02-05T07:37:21.279Z,2.20
2023-02-05T07:39:50.067Z,2.20
2023-02-05T07:42:18.604Z,1.90
2023-02-05T07:44:50.712Z,2.30
2023-02-05T07:47:19.115Z,2.50
2023-02-05T07:49:47.623Z,2.90
2023-02-05T07:52:16.062Z,4.40
2023-02-05T07:54:44.511Z,3.20
2023-02-05T07:57:13.008Z,2.30
2023-02-05T07:59:41.425Z,1.60
2023-02-05T08:02:11.792Z,2.10
2023-02-05T08:04:40.483Z,2.30
2023-02-05T08:07:12.847Z,2.00
2023-02-05T08:09:41.510Z,2.20
2023-02-05T08:12:10.099Z,2.70
2023-02-05T08:14:38.534Z,3.90
2023-02-05T08:17:07.100Z,5.00
2023-02-05T08:19:35.676Z,4.50
2023-02-05T08:22:04.136Z,5.00
2023-02-05T08:24:32.913Z,4.20
2023-02-05T08:27:01.439Z,5.10
2023-02-05T08:29:29.900Z,5.10
2023-02-05T08:31:58.633Z,4.00
2023-02-05T08:34:27.144Z,4.60
2023-02-05T08:36:57.538Z,4.90
2023-02-05T08:39:26.403Z,4.30
2023-02-05T08:41:56.965Z,4.30
2023-02-05T08:44:25.820Z,4.60
2023-02-05T08:46:54.487Z,4.30
2023-02-05T08:49:22.917Z,3.60
2023-02-05T08:51:51.742Z,4.00
2023-02-05T08:54:20.817Z,3.50
2023-02-05T08:56:51.334Z,3.60
2023-02-05T08:59:20.730Z,3.50
2023-02-05T09:01:49.679Z,4.80
2023-02-05T09:04:22.459Z,5.30
2023-02-05T09:06:51.841Z,6.00
2023-02-05T09:09:20.923Z,5.90
2023-02-05T09:11:50.032Z,6.60
2023-02-05T09:14:19.847Z,6.70
2023-02-05T09:16:48.503Z,7.00
2023-02-05T09:19:16.937Z,5.60
2023-02-05T09:21:45.438Z,5.60
2023-02-05T09:24:13.823Z,5.20
2023-02-05T09:26:42.349Z,4.80
2023-02-05T09:29:10.795Z,5.20
2023-02-05T09:31:41.666Z,6.10
2023-02-05T09:34:10.462Z,5.20
2023-02-05T09:36:40.791Z,4.80
2023-02-05T09:39:18.507Z,4.80
2023-02-05T09:42:07.644Z,4.10
2023-02-05T09:44:51.252Z,4.30
2023-02-05T09:48:01.332Z,3.60
2023-02-05T09:50:31.128Z,3.00
2023-02-05T09:53:08.689Z,2.50
2023-02-05T09:55:41.719Z,3.10
2023-02-05T09:58:27.604Z,3.00
2023-02-05T10:01:06.786Z,2.90
2023-02-05T10:03:45.555Z,3.80
2023-02-05T10:06:27.248Z,4.30
2023-02-05T10:09:33.477Z,3.90
2023-02-05T10:12:10.705Z,3.60
2023-02-05T10:15:03.323Z,3.90
2023-02-05T10:17:52.926Z,4.60
2023-02-05T10:20:24.167Z,4.40
2023-02-05T10:23:14.879Z,4.80
2023-02-05T10:26:12.666Z,4.10
2023-02-05T10:29:01.602Z,4.80
2023-02-05T10:31:50.738Z,4.10
2023-02-05T10:34:49.031Z,4.20
2023-02-05T10:37:20.433Z,4.30
2023-02-05T10:39:49.913Z,4.20
2023-02-05T10:42:47.010Z,4.20
2023-02-05T10:45:21.686Z,4.20
2023-02-05T10:48:17.969Z,4.40
2023-02-05T10:51:05.610Z,4.00
2023-02-05T10:53:36.498Z,4.10
2023-02-05T10:56:06.326Z,4.30
2023-02-05T10:58:41.518Z,4.20
2023-02-05T11:01:18.949Z,4.30
2023-02-05T11:03:59.623Z,5.00
2023-02-05T11:06:32.948Z,4.50
2023-02-05T11:09:01.851Z,3.70
2023-02-05T11:11:32.377Z,3.70
2023-02-05T11:14:05.063Z,3.70
2023-02-05T11:16:41.531Z,3.30
2023-02-05T11:19:25.846Z,3.50
2023-02-05T11:22:00.417Z,3.00
2023-02-05T11:24:39.640Z,3.40
2023-02-05T11:27:30.949Z,2.60
2023-02-05T11:30:48.000Z,2.80
2023-02-05T11:33:23.375Z,2.90
2023-02-05T11:36:08.419Z,2.50
2023-02-05T11:38:43.240Z,2.70
2023-02-05T11:41:15.152Z,2.70
2023-02-05T11:43:50.954Z,2.30
2023-02-05T11:46:23.261Z,2.40
2023-02-05T11:49:05.318Z,2.50
2023-02-05T11:51:36.932Z,2.10
2023-02-05T11:54:20.760Z,2.40
2023-02-05T11:57:30.026Z,2.00
2023-02-05T11:59:58.452Z,2.20
2023-02-05T12:02:29.554Z,2.40
2023-02-05T12:05:24.677Z,1.80
2023-02-05T12:07:58.476Z,1.90
2023-02-05T12:10:51.738Z,1.40
2023-02-05T12:13:31.690Z,1.70
2023-02-05T12:16:26.470Z,1.90
2023-02-05T12:19:20.619Z,3.10
2023-02-05T12:21:51.836Z,2.40
2023-02-05T12:24:38.581Z,2.30
2023-02-05T12:27:47.537Z,2.50
2023-02-05T12:30:28.181Z,2.60
2023-02-05T12:33:30.699Z,2.30
2023-02-05T12:36:18.027Z,2.20
2023-02-05T12:39:44.734Z,2.10
2023-02-05T12:42:24.803Z,2.30
2023-02-05T12:45:23.311Z,2.30
2023-02-05T12:48:10.577Z,2.00
2023-02-05T12:51:03.745Z,2.90
2023-02-05T12:53:40.356Z,2.10
2023-02-05T12:56:11.785Z,2.60
2023-02-05T12:58:46.685Z,2.20
2023-02-05T13:01:21.608Z,2.50
2023-02-05T13:04:01.165Z,2.70
2023-02-05T13:06:37.873Z,4.00
2023-02-05T13:09:18.937Z,3.10
2023-02-05T13:11:56.989Z,4.70
2023-02-05T13:14:49.159Z,12.30
2023-02-05T13:17:22.780Z,2.50
2023-02-05T13:21:10.888Z,10.50
2023-02-05T13:24:01.810Z,2.60
2023-02-05T13:26:58.164Z,4.30
2023-02-05T13:29:35.459Z,2.40
2023-02-05T13:32:15.836Z,2.00
2023-02-05T13:34:44.949Z,2.50
2023-02-05T13:37:30.072Z,2.20
2023-02-05T13:40:19.679Z,2.00
2023-02-05T13:43:03.260Z,2.00
2023-02-05T13:45:59.957Z,2.00
2023-02-05T13:48:49.832Z,1.90
2023-02-05T13:51:56.368Z,1.90
2023-02-05T13:55:05.113Z,1.90
2023-02-05T13:57:33.507Z,2.40
2023-02-05T14:00:05.247Z,2.60
2023-02-05T14:02:49.722Z,2.40
2023-02-05T14:05:32.645Z,2.40
2023-02-05T14:08:03.451Z,2.30
2023-02-05T14:10:42.388Z,2.20
2023-02-05T14:13:19.787Z,2.20
2023-02-05T14:15:49.232Z,2.30
2023-02-05T14:18:40.240Z,2.60
2023-02-05T14:21:30.365Z,2.10
2023-02-05T14:24:00.287Z,2.10
2023-02-05T14:26:52.011Z,3.20
2023-02-05T14:29:49.921Z,6.10
2023-02-05T14:32:27.720Z,3.10
2023-02-05T14:35:26.402Z,2.40
2023-02-05T14:38:02.760Z,2.30
2023-02-05T14:40:36.023Z,2.30
2023-02-05T14:43:22.735Z,2.10
2023-02-05T14:45:53.318Z,2.10
2023-02-05T14:48:32.958Z,1.90
2023-02-05T14:51:19.429Z,1.70
2023-02-05T14:53:58.015Z,2.10
2023-02-05T14:56:35.023Z,1.70
2023-02-05T14:59:29.436Z,1.70
2023-02-05T15:02:00.116Z,1.90
2023-02-05T15:04:35.261Z,2.00
2023-02-05T15:07:18.388Z,2.10
2023-02-05T15:10:07.627Z,1.70
2023-02-05T15:12:55.264Z,2.00
2023-02-05T15:15:49.551Z,2.10
2023-02-05T15:18:27.738Z,1.70
2023-02-05T15:20:57.880Z,1.70
2023-02-05T15:23:46.677Z,2.00
2023-02-05T15:26:28.124Z,2.10
2023-02-05T15:29:03.644Z,2.20
2023-02-05T15:31:54.955Z,2.60
2023-02-05T15:34:35.270Z,2.40
2023-02-05T15:37:09.797Z,2.40
2023-02-05T15:39:51.793Z,2.90
2023-02-05T15:42:33.110Z,3.10
2023-02-05T15:45:45.152Z,4.60
2023-02-05T15:48:19.577Z,3.90
2023-02-05T15:50:52.253Z,4.70
2023-02-05T15:53:41.878Z,6.10
2023-02-05T15:56:27.653Z,5.50
2023-02-05T15:59:01.173Z,5.20
2023-02-05T16:01:34.470Z,5.00
2023-02-05T16:04:21.063Z,5.50
2023-02-05T16:06:50.215Z,6.60
2023-02-05T16:09:21.149Z,7.50
2023-02-05T16:11:50.582Z,9.70
2023-02-05T16:14:28.666Z,8.30
2023-02-05T16:17:11.329Z,13.90
2023-02-05T16:19:48.504Z,19.70
2023-02-05T16:22:24.425Z,14.40
2023-02-05T16:24:58.461Z,16.40
2023-02-05T16:27:38.060Z,23.70
2023-02-05T16:30:17.486Z,35.90
2023-02-05T16:32:48.519Z,29.20
2023-02-05T16:35:27.143Z,18.00
2023-02-05T16:37:57.414Z,10.10
2023-02-05T16:40:46.829Z,21.50
2023-02-05T16:43:38.403Z,24.00
2023-02-05T16:46:06.984Z,17.90
2023-02-05T16:48:38.985Z,16.40
2023-02-05T16:51:34.208Z,23.50
2023-02-05T16:54:25.995Z,17.90
2023-02-05T16:57:06.755Z,24.00
2023-02-05T17:00:19.253Z,45.40
2023-02-05T17:02:47.792Z,32.00
2023-02-05T17:05:26.992Z,31.20
2023-02-05T17:08:10.306Z,26.40
2023-02-05T17:10:54.219Z,25.00
2023-02-05T17:13:49.313Z,23.40
2023-02-05T17:16:27.495Z,21.10
2023-02-05T17:19:01.090Z,14.40
2023-02-05T17:21:34.669Z,20.90
2023-02-05T17:24:09.287Z,25.20
2023-02-05T17:26:41.161Z,15.20
2023-02-05T17:29:16.018Z,14.70
2023-02-05T17:31:44.619Z,11.60
2023-02-05T17:34:13.349Z,13.00
2023-02-05T17:36:41.835Z,13.60
2023-02-05T17:39:10.361Z,10.70
2023-02-05T17:41:57.299Z,8.30
2023-02-05T17:44:25.743Z,9.40
2023-02-05T17:46:54.372Z,10.00
2023-02-05T17:49:23.177Z,8.10
2023-02-05T17:51:51.715Z,8.70
2023-02-05T17:54:23.269Z,8.40
2023-02-05T17:56:57.021Z,9.80
2023-02-05T17:59:26.303Z,11.20
2023-02-05T18:01:54.795Z,22.70
2023-02-05T18:04:23.306Z,33.00
2023-02-05T18:06:52.084Z,14.60
2023-02-05T18:09:20.650Z,18.80
2023-02-05T18:11:49.451Z,29.20
2023-02-05T18:14:18.027Z,27.20
2023-02-05T18:16:46.801Z,15.80
2023-02-05T18:19:15.306Z,11.30
2023-02-05T18:21:46.406Z,11.50
2023-02-05T18:24:15.375Z,11.90
2023-02-05T18:26:44.230Z,12.10
2023-02-05T18:29:12.687Z,12.00
2023-02-05T18:31:41.190Z,10.10
2023-02-05T18:34:09.903Z,10.50
2023-02-05T18:36:38.451Z,9.90
2023-02-05T18:39:06.987Z,7.50
2023-02-05T18:41:35.580Z,7.00
2023-02-05T18:44:04.202Z,7.80
2023-02-05T18:46:32.607Z,6.50
2023-02-05T18:49:01.407Z,7.20
2023-02-05T18:51:29.946Z,9.40
2023-02-05T18:53:59.133Z,8.40
2023-02-05T18:56:30.097Z,7.60
2023-02-05T18:59:03.269Z,7.50
2023-02-05T19:01:38.475Z,10.10
2023-02-05T19:04:10.251Z,7.60
2023-02-05T19:06:42.066Z,8.30
2023-02-05T19:09:11.597Z,8.70
2023-02-05T19:11:41.767Z,8.40
2023-02-05T19:14:16.765Z,6.30
2023-02-05T19:16:45.692Z,6.90
2023-02-05T19:19:21.244Z,6.60
2023-02-05T19:21:54.960Z,5.50
2023-02-05T19:24:23.840Z,7.40
2023-02-05T19:26:56.687Z,6.60
2023-02-05T19:29:26.506Z,8.30
2023-02-05T19:31:55.136Z,6.70
2023-02-05T19:34:24.282Z,4.50
2023-02-05T19:36:52.710Z,3.70
2023-02-05T19:39:21.145Z,2.60
2023-02-05T19:41:51.582Z,2.60
2023-02-05T19:44:20.492Z,3.20
2023-02-05T19:46:49.045Z,3.40
2023-02-05T19:49:22.230Z,2.90
2023-02-05T19:51:54.623Z,3.20
2023-02-05T19:54:24.086Z,6.10
2023-02-05T19:56:52.816Z,7.80
2023-02-05T19:59:21.475Z,7.00
2023-02-05T20:01:50.258Z,6.40
2023-02-05T20:04:22.683Z,6.60
2023-02-05T20:06:56.351Z,6.00
2023-02-05T20:09:26.342Z,6.10
2023-02-05T20:11:55.973Z,7.70
2023-02-05T20:14:25.065Z,5.90
2023-02-05T20:16:54.105Z,7.70
2023-02-05T20:19:22.625Z,6.50
2023-02-05T20:21:51.458Z,6.20
2023-02-05T20:24:19.933Z,7.00
2023-02-05T20:26:48.740Z,6.00
2023-02-05T20:29:36.355Z,5.50
2023-02-05T20:32:05.843Z,6.30
2023-02-05T20:34:36.353Z,5.80
2023-02-05T20:37:09.284Z,5.80
2023-02-05T20:39:42.847Z,5.30
2023-02-05T20:42:15.418Z,5.20
2023-02-05T20:44:44.582Z,5.90
2023-02-05T20:47:14.759Z,5.60
2023-02-05T20:49:43.739Z,4.80
2023-02-05T20:52:12.559Z,4.70
2023-02-05T20:54:41.195Z,5.50
2023-02-05T20:57:09.690Z,5.30
2023-02-05T20:59:38.861Z,5.30
2023-02-05T21:02:08.004Z,5.60
2023-02-05T21:04:37.809Z,4.80
2023-02-05T21:07:06.388Z,4.70
2023-02-05T21:09:35.160Z,3.70
2023-02-05T21:12:03.789Z,4.50
2023-02-05T21:14:32.424Z,4.70
2023-02-05T21:17:00.889Z,4.60
2023-02-05T21:19:29.384Z,6.60
2023-02-05T21:21:57.981Z,9.10
2023-02-05T21:24:26.416Z,10.10
2023-02-05T21:26:54.924Z,7.00
2023-02-05T21:29:23.627Z,5.60
2023-02-05T21:31:55.977Z,6.60
2023-02-05T21:34:27.901Z,5.50
2023-02-05T21:36:56.845Z,5.00
2023-02-05T21:39:25.769Z,4.50
2023-02-05T21:41:55.039Z,4.90
2023-02-05T21:44:24.450Z,5.90
2023-02-05T21:46:54.923Z,8.20
2023-02-05T21:49:23.333Z,16.20
2023-02-05T21:51:53.543Z,14.30
2023-02-05T21:54:25.917Z,16.50
2023-02-05T21:56:54.716Z,15.60
2023-02-05T21:59:23.825Z,14.30
2023-02-05T22:01:52.358Z,10.90
2023-02-05T22:04:21.103Z,8.70
2023-02-05T22:06:50.988Z,8.20
2023-02-05T22:09:19.554Z,9.40
2023-02-05T22:11:51.397Z,12.80
2023-02-05T22:14:19.935Z,9.20
2023-02-05T22:16:48.559Z,11.90
2023-02-05T22:19:17.077Z,10.20
2023-02-05T22:21:45.612Z,10.00
2023-02-05T22:24:16.387Z,7.00
2023-02-05T22:26:46.625Z,7.90
2023-02-05T22:29:18.493Z,5.70
2023-02-05T22:31:54.567Z,5.40
2023-02-05T22:34:23.350Z,5.70
2023-02-05T22:36:51.786Z,5.10
2023-02-05T22:39:20.364Z,5.80
2023-02-05T22:41:49.098Z,5.80
2023-02-05T22:44:17.642Z,9.40
2023-02-05T22:46:46.056Z,7.90
2023-02-05T22:49:17.503Z,6.40
2023-02-05T22:51:46.346Z,5.90
2023-02-05T22:54:15.524Z,5.40
2023-02-05T22:56:45.002Z,6.70
2023-02-05T22:59:13.750Z,7.00
2023-02-05T23:01:42.284Z,7.10
2023-02-05T23:04:11.325Z,5.80
2023-02-05T23:06:42.675Z,5.00
2023-02-05T23:09:17.249Z,4.00
2023-02-05T23:11:46.606Z,6.00
2023-02-05T23:14:17.553Z,5.90
2023-02-05T23:16:47.500Z,5.20
2023-02-05T23:19:19.327Z,5.60
2023-02-05T23:21:48.247Z,5.50
2023-02-05T23:24:17.331Z,5.30
2023-02-05T23:26:48.256Z,4.50
2023-02-05T23:29:17.817Z,5.30
2023-02-05T23:31:46.800Z,5.50
2023-02-05T23:34:15.581Z,4.60
2023-02-05T23:36:44.091Z,5.10
2023-02-05T23:39:12.615Z,4.20
2023-02-05T23:41:41.216Z,5.10
2023-02-05T23:44:19.004Z,5.70
2023-02-05T23:46:49.019Z,4.80
2023-02-05T23:49:21.267Z,5.40
2023-02-05T23:51:54.874Z,5.20
2023-02-05T23:54:24.340Z,5.80
2023-02-05T23:56:52.795Z,7.30
2023-02-05T23:59:21.340Z,6.80
